Hoxeyville, Michigan
Current Conditions -  °F | °C
As of 10:14 AM on Saturday 25 Oct 2014 (Local Time) from KCAD Reporting Station
Clear Clear  
Wind Chill: 56°   Ceiling: Unl
Heat Index: 56°   Visibility: 10mi
Dew Point: 50°   Wind: 10mph
Humidity: 79%   Direction: 270°W
Pressure: 29.77"   Gusts: 18mph
Location:  44.2433°N, 85.5328°W
Report Text: KCAD 251414Z AUTO 27009G16KT 10SM CLR 13/10 A2977 RMK AO2 T01350100
Loading
Personal Weather Stations






























Interactive Weather Map
Tropical Storm Tracking
New forecast layout! Learn more

10-Day Weather Forecast

Advertisements
Track Severe Weather on mobile